Time;durP1;ratioP1;P1;durP2;ratioP2;P2;SDS_P1;SDS_P2;PMS_P1;PMS_P2;Temp;Humidity;BMP_temperature;BMP_pressure;BME280_temperature;BME280_humidity;BME280_pressure;Samples;Min_cycle;Max_cycle;Signal;HPM_P1;HPM_P2
2023/07/02 00:00:23;;;;;;;12.00;6.53;;;;;;;16.94;100.00;92035.22;4958896;28;20039;-77
2023/07/02 00:02:49;;;;;;;12.48;6.43;;;;;;;16.93;100.00;92035.56;4964109;28;20126;-79
2023/07/02 00:05:14;;;;;;;10.88;6.57;;;;;;;16.89;100.00;92037.34;4960485;28;20079;-78
2023/07/02 00:07:40;;;;;;;11.23;6.18;;;;;;;16.86;100.00;92038.78;4946693;29;20050;-79
2023/07/02 00:10:06;;;;;;;11.48;6.38;;;;;;;16.83;100.00;92034.94;4946558;29;20034;-78
2023/07/02 00:12:31;;;;;;;11.50;6.70;;;;;;;16.79;100.00;92034.06;4964587;28;20032;-79
2023/07/02 00:14:57;;;;;;;11.48;5.97;;;;;;;16.76;100.00;92021.50;4966859;28;20042;-78
2023/07/02 00:17:23;;;;;;;11.73;6.40;;;;;;;16.74;100.00;92026.34;4965472;28;20039;-79
2023/07/02 00:19:51;;;;;;;11.18;6.32;;;;;;;16.70;100.00;92028.09;4963360;28;20054;-78
2023/07/02 00:22:17;;;;;;;10.95;6.45;;;;;;;16.65;100.00;92037.03;4980836;28;20043;-77
2023/07/02 00:24:43;;;;;;;10.80;6.90;;;;;;;16.65;100.00;92029.13;4965048;28;20034;-78
2023/07/02 00:27:08;;;;;;;13.90;7.03;;;;;;;16.63;100.00;92033.97;4964823;28;20144;-79
2023/07/02 00:29:34;;;;;;;12.65;6.72;;;;;;;16.62;100.00;92039.59;4964285;28;20039;-79
2023/07/02 00:31:59;;;;;;;10.73;6.28;;;;;;;16.61;100.00;92033.53;4964384;29;20030;-79
2023/07/02 00:34:26;;;;;;;10.65;5.95;;;;;;;16.60;100.00;92036.53;4963940;29;20512;-79
2023/07/02 00:36:52;;;;;;;11.60;6.32;;;;;;;16.58;100.00;92039.50;4963351;28;20448;-79
2023/07/02 00:39:18;;;;;;;11.25;6.40;;;;;;;16.56;100.00;92040.94;4964538;28;20050;-79
2023/07/02 00:41:46;;;;;;;14.10;6.80;;;;;;;16.52;100.00;92048.72;4964031;29;20439;-78
2023/07/02 00:44:14;;;;;;;9.77;5.97;;;;;;;16.49;100.00;92046.78;4966089;29;20027;-78
2023/07/02 00:46:40;;;;;;;10.82;6.07;;;;;;;16.47;100.00;92040.28;4944513;29;20162;-79
2023/07/02 00:49:08;;;;;;;11.82;5.78;;;;;;;16.42;100.00;92039.41;4961270;29;20141;-79
2023/07/02 00:51:33;;;;;;;9.48;6.00;;;;;;;16.38;100.00;92041.16;4946147;29;20072;-78
2023/07/02 00:54:01;;;;;;;10.95;6.35;;;;;;;16.35;100.00;92052.41;4945749;29;20066;-78
2023/07/02 00:56:27;;;;;;;10.27;6.00;;;;;;;16.31;100.00;92045.47;4960775;28;20031;-78
2023/07/02 00:58:58;;;;;;;11.13;6.32;;;;;;;16.30;100.00;92050.00;4960509;29;20039;-78
2023/07/02 01:01:28;;;;;;;14.43;7.30;;;;;;;16.28;100.00;92043.47;4963346;29;20031;-78
2023/07/02 01:04:00;;;;;;;10.13;6.07;;;;;;;16.28;100.00;92041.63;4963557;29;20059;-78
2023/07/02 01:06:27;;;;;;;11.73;6.47;;;;;;;16.28;100.00;92043.47;4965489;28;20043;-78
2023/07/02 01:09:02;;;;;;;12.70;6.80;;;;;;;16.26;100.00;92048.31;4964306;29;20465;-78
2023/07/02 01:11:50;;;;;;;15.35;7.40;;;;;;;16.26;100.00;92043.84;4970740;28;20090;-78
2023/07/02 01:14:28;;;;;;;13.68;6.60;;;;;;;16.20;100.00;92040.63;4964947;29;20035;-78
2023/07/02 01:16:55;;;;;;;12.57;7.25;;;;;;;16.15;100.00;92032.94;4978995;28;20048;-79
2023/07/02 01:19:32;;;;;;;17.95;6.88;;;;;;;16.17;100.00;92043.19;4963919;29;20038;-78
2023/07/02 01:21:59;;;;;;;10.75;6.05;;;;;;;16.12;100.00;92033.63;4963735;28;20480;-78
2023/07/02 01:24:24;;;;;;;11.98;6.85;;;;;;;16.13;100.00;92039.66;4962519;29;20082;-77
2023/07/02 01:26:50;;;;;;;13.18;7.40;;;;;;;16.10;100.00;92045.56;4963630;28;20099;-78
2023/07/02 01:29:17;;;;;;;12.13;6.85;;;;;;;16.06;100.00;92045.50;4963577;28;20493;-78
2023/07/02 01:31:43;;;;;;;12.35;7.07;;;;;;;16.07;100.00;92041.72;4963572;29;20035;-78
2023/07/02 01:34:09;;;;;;;13.27;6.82;;;;;;;16.07;100.00;92038.31;4963388;29;20054;-78
2023/07/02 01:36:35;;;;;;;14.90;7.28;;;;;;;16.07;100.00;92036.44;4963759;28;20031;-79
2023/07/02 01:39:01;;;;;;;12.30;7.47;;;;;;;16.09;100.00;92036.13;4963844;29;20039;-78
2023/07/02 01:41:26;;;;;;;14.15;8.25;;;;;;;16.06;100.00;92040.22;4963338;29;20043;-78
2023/07/02 01:43:52;;;;;;;12.32;7.18;;;;;;;16.02;100.00;92042.72;4959802;29;20024;-78
2023/07/02 01:46:17;;;;;;;12.75;7.57;;;;;;;16.05;100.00;92048.44;4959654;28;20506;-79
2023/07/02 01:48:44;;;;;;;11.98;7.35;;;;;;;16.01;100.00;92037.78;4976978;28;20047;-77
2023/07/02 01:51:10;;;;;;;12.45;7.05;;;;;;;16.00;100.00;92044.16;4963561;29;20485;-78
2023/07/02 01:53:35;;;;;;;15.52;7.45;;;;;;;15.99;100.00;92037.34;4963775;28;20619;-78
2023/07/02 01:56:01;;;;;;;17.40;8.15;;;;;;;15.98;100.00;92039.19;4962700;28;20409;-78
2023/07/02 01:58:27;;;;;;;12.45;7.43;;;;;;;15.98;100.00;92038.44;4964440;29;20095;-78
2023/07/02 02:00:52;;;;;;;13.25;7.60;;;;;;;15.99;100.00;92047.91;4962481;29;20047;-79
2023/07/02 02:03:18;;;;;;;12.80;7.82;;;;;;;15.96;100.00;92045.91;4964471;28;20044;-78
2023/07/02 02:05:44;;;;;;;12.35;7.30;;;;;;;15.95;100.00;92049.66;4962242;28;20039;-78
2023/07/02 02:08:10;;;;;;;15.63;7.80;;;;;;;15.94;100.00;92048.09;4962399;29;20094;-78
2023/07/02 02:10:37;;;;;;;15.23;7.20;;;;;;;15.91;100.00;92038.22;4963252;28;20031;-78
2023/07/02 02:13:02;;;;;;;13.98;7.50;;;;;;;15.92;100.00;92050.31;4958562;29;20039;-78
2023/07/02 02:15:28;;;;;;;18.00;7.95;;;;;;;15.91;100.00;92044.25;4958979;28;20053;-78
2023/07/02 02:17:53;;;;;;;13.30;7.88;;;;;;;15.91;100.00;92043.50;4958289;29;20052;-78
2023/07/02 02:20:19;;;;;;;12.90;7.45;;;;;;;15.90;100.00;92047.25;4970720;28;20043;-78
2023/07/02 02:22:45;;;;;;;16.63;7.32;;;;;;;15.89;100.00;92041.19;4962012;29;20038;-78
2023/07/02 02:25:10;;;;;;;12.57;7.35;;;;;;;15.90;100.00;92037.47;4963319;28;20041;-77
2023/07/02 02:27:36;;;;;;;13.95;8.10;;;;;;;15.86;100.00;92038.44;4963235;28;20553;-78
2023/07/02 02:30:02;;;;;;;13.50;6.82;;;;;;;15.81;100.00;92039.44;4969784;28;20054;-78
2023/07/02 02:32:29;;;;;;;11.98;7.13;;;;;;;15.81;100.00;92044.72;4961678;29;20497;-78
2023/07/02 02:34:56;;;;;;;13.65;8.00;;;;;;;15.79;100.00;92041.63;4961622;28;20043;-79
2023/07/02 02:37:23;;;;;;;13.27;7.28;;;;;;;15.77;100.00;92044.59;4963098;28;20103;-78
2023/07/02 02:39:50;;;;;;;14.98;7.43;;;;;;;15.76;100.00;92042.25;4962675;28;20444;-78
2023/07/02 02:42:16;;;;;;;13.13;7.18;;;;;;;15.76;100.00;92047.53;4970775;28;20110;-78
2023/07/02 02:44:41;;;;;;;12.80;7.13;;;;;;;15.73;100.00;92041.06;4982606;28;20129;-78
2023/07/02 02:47:07;;;;;;;15.13;7.30;;;;;;;15.71;100.00;92039.84;4968031;28;20050;-78
2023/07/02 02:49:32;;;;;;;13.88;7.43;;;;;;;15.72;100.00;92041.41;4967791;28;20039;-78
2023/07/02 02:51:58;;;;;;;11.65;7.22;;;;;;;15.72;100.00;92036.13;4967300;29;20122;-78
2023/07/02 02:54:23;;;;;;;15.02;7.18;;;;;;;15.73;100.00;92032.38;4967825;28;20062;-78
2023/07/02 02:56:49;;;;;;;16.75;7.78;;;;;;;15.73;100.00;92040.28;4951027;29;20058;-78
2023/07/02 02:59:15;;;;;;;15.43;7.85;;;;;;;15.69;100.00;92036.72;4967232;29;20047;-78
2023/07/02 03:01:40;;;;;;;13.80;7.82;;;;;;;15.68;100.00;92041.25;4967081;28;20039;-78
2023/07/02 03:04:08;;;;;;;17.55;8.15;;;;;;;15.68;100.00;92037.84;4966564;28;20031;-78
2023/07/02 03:06:34;;;;;;;15.98;8.13;;;;;;;15.66;100.00;92032.88;4966377;28;20049;-78
2023/07/02 03:08:59;;;;;;;24.48;8.63;;;;;;;15.67;100.00;92033.66;4962862;29;20047;-78
2023/07/02 03:11:25;;;;;;;15.25;9.05;;;;;;;15.66;100.00;92032.88;4948038;29;20032;-78
2023/07/02 03:13:51;;;;;;;16.52;8.75;;;;;;;15.64;100.00;92034.31;4978258;28;20405;-78
2023/07/02 03:16:16;;;;;;;17.92;9.30;;;;;;;15.65;100.00;92035.84;4963449;28;20039;-78
2023/07/02 03:18:42;;;;;;;16.58;9.10;;;;;;;15.65;100.00;92035.84;4963179;29;20055;-78
2023/07/02 03:21:08;;;;;;;15.73;8.73;;;;;;;15.61;100.00;92036.50;4948736;29;20046;-78
2023/07/02 03:23:34;;;;;;;14.30;8.20;;;;;;;15.62;100.00;92037.28;4948586;29;20028;-78
2023/07/02 03:25:59;;;;;;;13.30;6.85;;;;;;;15.60;100.00;92040.25;4948107;29;20087;-78
2023/07/02 03:28:25;;;;;;;13.98;6.90;;;;;;;15.58;100.00;92044.28;4948162;29;20035;-78
2023/07/02 03:30:51;;;;;;;13.10;7.25;;;;;;;15.53;100.00;92040.00;4948220;29;20040;-78
2023/07/02 03:33:16;;;;;;;18.17;7.75;;;;;;;15.54;100.00;92038.16;4946904;29;20027;-77
2023/07/02 03:35:42;;;;;;;11.13;6.18;;;;;;;15.52;100.00;92050.91;4961873;28;20048;-78
2023/07/02 03:38:07;;;;;;;10.18;6.05;;;;;;;15.49;100.00;92049.69;4979029;28;20070;-78
2023/07/02 03:40:33;;;;;;;9.70;5.63;;;;;;;15.48;100.00;92048.13;4965983;28;20038;-78
2023/07/02 03:42:58;;;;;;;15.23;6.30;;;;;;;15.46;100.00;92047.69;4966803;28;20039;-78
2023/07/02 03:45:24;;;;;;;12.50;6.45;;;;;;;15.46;100.00;92052.19;4965343;28;20049;-79
2023/07/02 03:47:49;;;;;;;12.40;6.40;;;;;;;15.45;100.00;92048.78;4966300;29;20154;-78
2023/07/02 03:50:15;;;;;;;12.98;6.55;;;;;;;15.45;100.00;92048.78;4965902;28;20031;-78
2023/07/02 03:52:41;;;;;;;13.68;6.63;;;;;;;15.47;100.00;92046.59;4965211;28;20128;-78
2023/07/02 03:55:07;;;;;;;13.23;6.75;;;;;;;15.48;100.00;92050.78;4966667;28;20027;-78
2023/07/02 03:57:32;;;;;;;12.93;6.30;;;;;;;15.49;100.00;92056.81;4964135;29;20082;-79
2023/07/02 03:59:58;;;;;;;15.35;6.03;;;;;;;15.48;100.00;92057.91;4964657;29;20441;-77
2023/07/02 04:02:23;;;;;;;12.23;6.53;;;;;;;15.48;100.00;92056.03;4965547;28;20094;-78
2023/07/02 04:04:49;;;;;;;13.00;6.68;;;;;;;15.48;100.00;92061.31;4965911;28;20053;-78
2023/07/02 04:07:15;;;;;;;14.48;6.80;;;;;;;15.48;100.00;92060.56;4965428;29;20039;-78
2023/07/02 04:09:41;;;;;;;18.85;6.10;;;;;;;15.51;100.00;92063.28;4964170;28;20066;-78
2023/07/02 04:12:07;;;;;;;12.82;6.85;;;;;;;15.50;100.00;92053.84;4965968;28;20071;-78
2023/07/02 04:14:33;;;;;;;13.23;6.82;;;;;;;15.53;100.00;92055.06;4966262;28;20046;-78
2023/07/02 04:16:58;;;;;;;16.00;7.70;;;;;;;15.58;100.00;92058.28;4967715;28;20461;-78
2023/07/02 04:19:24;;;;;;;17.83;8.05;;;;;;;15.63;100.00;92059.94;4966786;28;20095;-77
2023/07/02 04:21:49;;;;;;;15.25;7.72;;;;;;;15.67;100.00;92060.81;4966162;28;20039;-78
2023/07/02 04:24:15;;;;;;;16.92;7.40;;;;;;;15.72;100.00;92070.44;4965074;29;20047;-78
2023/07/02 04:26:42;;;;;;;15.68;7.22;;;;;;;15.75;100.00;92064.47;4966084;28;20035;-79
2023/07/02 04:29:10;;;;;;;16.80;7.90;;;;;;;15.76;100.00;92060.72;4963971;29;20035;-78
2023/07/02 04:31:35;;;;;;;12.95;7.10;;;;;;;15.84;100.00;92067.03;4966084;28;20047;-78
2023/07/02 04:34:01;;;;;;;15.93;7.53;;;;;;;15.89;100.00;92072.09;4966062;28;20054;-78
2023/07/02 04:36:28;;;;;;;17.38;7.72;;;;;;;15.93;100.00;92068.47;4964956;28;20534;-78
2023/07/02 04:38:53;;;;;;;14.32;8.02;;;;;;;15.99;100.00;92079.59;4965007;29;20524;-78
2023/07/02 04:41:19;;;;;;;20.45;7.97;;;;;;;16.06;100.00;92076.41;4966134;29;20054;-78
2023/07/02 04:43:45;;;;;;;15.93;8.40;;;;;;;16.11;100.00;92074.31;4964829;29;20059;-77
2023/07/02 04:46:12;;;;;;;15.93;7.90;;;;;;;16.19;100.00;92076.06;4959770;28;20051;-77
2023/07/02 04:48:38;;;;;;;17.25;8.02;;;;;;;16.26;100.00;92075.53;4959018;29;20560;-77
2023/07/02 04:51:04;;;;;;;17.77;8.23;;;;;;;16.32;100.00;92065.50;4954468;29;20043;-78
2023/07/02 04:53:29;;;;;;;17.88;8.95;;;;;;;16.43;100.00;92077.16;4961681;28;20400;-77
2023/07/02 04:55:57;;;;;;;20.80;8.98;;;;;;;16.50;100.00;92073.94;4958925;28;20074;-77
2023/07/02 04:58:23;;;;;;;17.42;8.50;;;;;;;16.58;100.00;92070.44;4960905;28;20039;-77
2023/07/02 05:00:48;;;;;;;18.17;8.20;;;;;;;16.73;100.00;92076.88;4962224;28;20027;-77
2023/07/02 05:03:14;;;;;;;14.20;7.47;;;;;;;16.83;100.00;92071.19;4959738;29;20070;-77
2023/07/02 05:05:39;;;;;;;16.23;7.57;;;;;;;16.92;100.00;92071.03;4960784;28;20039;-77
2023/07/02 05:08:05;;;;;;;14.13;7.40;;;;;;;16.98;100.00;92072.34;4960241;29;20493;-77
2023/07/02 05:10:31;;;;;;;14.52;7.68;;;;;;;17.07;100.00;92075.63;4960168;29;20047;-78
2023/07/02 05:12:56;;;;;;;16.58;7.70;;;;;;;17.17;100.00;92079.66;4959419;29;20138;-78
2023/07/02 05:15:23;;;;;;;19.02;8.00;;;;;;;17.24;100.00;92075.31;4955260;28;20060;-78
2023/07/02 05:17:49;;;;;;;13.07;6.63;;;;;;;17.35;100.00;92077.50;4956507;29;20039;-78
2023/07/02 05:20:15;;;;;;;12.82;7.15;;;;;;;17.39;100.00;92083.66;4941192;29;20099;-78
2023/07/02 05:22:40;;;;;;;16.30;7.18;;;;;;;17.47;100.00;92083.53;4954922;29;20039;-77
2023/07/02 05:25:06;;;;;;;14.40;7.30;;;;;;;17.62;100.00;92083.88;4952500;28;20040;-76
2023/07/02 05:27:32;;;;;;;19.77;7.43;;;;;;;17.75;100.00;92082.69;4938776;29;20039;-77
2023/07/02 05:29:57;;;;;;;14.95;7.63;;;;;;;17.92;100.00;92080.88;4941464;29;20524;-75
2023/07/02 05:32:23;;;;;;;17.95;8.13;;;;;;;18.07;100.00;92078.22;4954939;29;20493;-76
2023/07/02 05:34:49;;;;;;;18.58;9.75;;;;;;;18.27;100.00;92084.38;4953472;28;20047;-76
2023/07/02 05:37:14;;;;;;;21.13;10.13;;;;;;;18.45;100.00;92076.81;4954202;29;20500;-77
2023/07/02 05:39:40;;;;;;;23.10;11.15;;;;;;;18.64;100.00;92083.28;4954882;28;20035;-76
2023/07/02 05:42:06;;;;;;;17.25;8.95;;;;;;;18.73;100.00;92083.84;4937632;29;20031;-77
2023/07/02 05:44:31;;;;;;;16.48;8.25;;;;;;;18.74;100.00;92090.72;4952839;28;20563;-77
2023/07/02 05:46:57;;;;;;;16.55;8.52;;;;;;;18.81;100.00;92084.81;4957268;28;20353;-77
2023/07/02 05:49:22;;;;;;;19.60;10.35;;;;;;;19.17;100.00;92091.63;4959008;28;20042;-77
2023/07/02 05:51:48;;;;;;;21.38;8.98;;;;;;;20.14;100.00;92086.22;4972205;28;20359;-77
2023/07/02 05:54:14;;;;;;;19.58;8.95;;;;;;;20.57;100.00;92089.56;4957800;28;20086;-77
2023/07/02 05:56:39;;;;;;;16.27;8.40;;;;;;;21.07;100.00;92089.47;4958198;28;20035;-78
2023/07/02 05:59:05;;;;;;;16.95;7.80;;;;;;;21.24;100.00;92093.50;4959563;28;20374;-78
2023/07/02 06:01:30;;;;;;;22.00;8.95;;;;;;;21.03;100.00;92090.56;4960220;29;20264;-78
2023/07/02 06:03:56;;;;;;;19.23;8.32;;;;;;;20.39;100.00;92099.13;4958701;29;20035;-78
2023/07/02 06:06:24;;;;;;;19.83;9.15;;;;;;;20.02;100.00;92098.88;4957895;28;20050;-78
2023/07/02 06:08:50;;;;;;;17.40;8.57;;;;;;;19.91;100.00;92102.16;4957309;29;20039;-78
2023/07/02 06:11:16;;;;;;;19.50;9.02;;;;;;;19.49;100.00;92110.06;4952403;29;20429;-76
2023/07/02 06:13:41;;;;;;;20.83;9.50;;;;;;;19.27;100.00;92099.06;4954071;28;20054;-77
2023/07/02 06:16:07;;;;;;;21.08;9.13;;;;;;;19.22;100.00;92101.19;4953515;28;20046;-77
2023/07/02 06:18:32;;;;;;;21.25;8.45;;;;;;;19.25;100.00;92101.28;4956622;28;20027;-77
2023/07/02 06:20:58;;;;;;;17.60;8.90;;;;;;;19.21;100.00;92111.03;4958137;28;20039;-77
2023/07/02 06:23:23;;;;;;;16.73;8.60;;;;;;;18.92;100.00;92110.44;4955947;29;20524;-77
2023/07/02 06:25:51;;;;;;;22.35;8.82;;;;;;;19.09;100.00;92108.50;4955981;28;20031;-77
2023/07/02 06:28:17;;;;;;;18.73;9.50;;;;;;;19.07;100.00;92105.44;4955677;29;20043;-77
2023/07/02 06:30:42;;;;;;;18.05;8.82;;;;;;;19.11;100.00;92112.34;4954935;29;20043;-78
2023/07/02 06:33:08;;;;;;;20.02;8.77;;;;;;;19.11;100.00;92112.34;4955587;28;20031;-77
2023/07/02 06:35:34;;;;;;;17.23;8.80;;;;;;;19.07;100.00;92114.19;4955775;28;20036;-77
2023/07/02 06:37:59;;;;;;;22.95;9.73;;;;;;;19.13;100.00;92114.66;4956485;28;20038;-77
2023/07/02 06:40:25;;;;;;;18.80;9.25;;;;;;;19.34;100.00;92120.41;4956945;28;20077;-78
2023/07/02 06:42:50;;;;;;;14.90;8.95;;;;;;;19.79;100.00;92128.09;4957769;29;20398;-78
2023/07/02 06:45:16;;;;;;;17.08;9.23;;;;;;;20.28;100.00;92132.75;4957124;28;20040;-77
2023/07/02 06:47:41;;;;;;;16.23;8.65;;;;;;;20.55;100.00;92126.34;4956825;29;20054;-77
2023/07/02 06:50:07;;;;;;;17.75;9.13;;;;;;;20.88;100.00;92126.84;4954368;29;20036;-78
2023/07/02 06:52:33;;;;;;;19.50;10.00;;;;;;;21.07;100.00;92117.97;4953977;29;20038;-78
2023/07/02 06:54:58;;;;;;;21.17;9.23;;;;;;;20.87;100.00;92122.66;4954550;28;20097;-77
2023/07/02 06:57:24;;;;;;;19.20;9.15;;;;;;;20.76;100.00;92127.81;4954508;28;20478;-78
2023/07/02 06:59:50;;;;;;;23.17;9.05;;;;;;;20.84;100.00;92134.00;4954604;28;20075;-78
2023/07/02 07:02:16;;;;;;;19.23;9.68;;;;;;;20.69;100.00;92135.69;4957132;29;20049;-80
2023/07/02 07:04:41;;;;;;;18.10;9.32;;;;;;;20.67;100.00;92132.63;4951506;28;20389;-79
2023/07/02 07:07:07;;;;;;;18.77;9.10;;;;;;;20.65;100.00;92129.53;4957082;29;20036;-79
2023/07/02 07:09:32;;;;;;;20.75;10.02;;;;;;;20.78;100.00;92138.84;4950381;29;20122;-78
2023/07/02 07:11:58;;;;;;;18.60;9.15;;;;;;;20.94;100.00;92136.84;4956737;29;20043;-77
2023/07/02 07:14:23;;;;;;;19.98;8.73;;;;;;;20.97;100.00;92140.66;4957304;28;20071;-79
2023/07/02 07:16:49;;;;;;;20.45;10.30;;;;;;;20.82;100.00;92147.66;4957224;28;20416;-78
2023/07/02 07:19:15;;;;;;;25.23;10.95;;;;;;;20.83;100.00;92151.88;4958538;28;20034;-79
2023/07/02 07:21:42;;;;;;;21.73;9.63;;;;;;;20.73;100.00;92147.91;4958615;29;20464;-79
2023/07/02 07:24:08;;;;;;;19.92;9.85;;;;;;;20.79;100.00;92141.16;4956288;28;20047;-77
2023/07/02 07:26:33;;;;;;;19.00;9.07;;;;;;;20.92;100.00;92143.66;4957032;28;20027;-78
2023/07/02 07:29:00;;;;;;;21.13;9.32;;;;;;;20.90;100.00;92145.88;4962178;28;20050;-79
2023/07/02 07:31:25;;;;;;;15.15;8.77;;;;;;;20.90;100.00;92151.22;4958796;29;20043;-77
2023/07/02 07:33:51;;;;;;;18.38;9.70;;;;;;;21.02;100.00;92150.22;4957519;29;20409;-78
2023/07/02 07:36:17;;;;;;;16.85;8.45;;;;;;;21.07;100.00;92157.91;4928558;29;20059;-79
2023/07/02 07:38:45;;;;;;;15.55;8.27;;;;;;;21.21;100.00;92153.56;4960417;28;20071;-78
2023/07/02 07:41:11;;;;;;;19.02;8.60;;;;;;;21.33;100.00;92157.13;4957566;28;20090;-78
2023/07/02 07:43:37;;;;;;;18.45;9.25;;;;;;;21.49;100.00;92148.97;4956989;28;20039;-78
2023/07/02 07:46:02;;;;;;;16.55;8.35;;;;;;;21.52;100.00;92153.56;4972350;28;20445;-78
2023/07/02 07:48:28;;;;;;;13.23;7.43;;;;;;;21.81;100.00;92150.09;4958088;29;20047;-78
2023/07/02 07:50:54;;;;;;;19.92;9.52;;;;;;;21.91;100.00;92147.91;4975873;28;20363;-80
2023/07/02 07:53:20;;;;;;;19.60;9.35;;;;;;;21.62;100.00;92153.69;4960108;29;20502;-79
2023/07/02 07:55:46;;;;;;;23.02;9.00;;;;;;;21.71;100.00;92153.44;4961370;28;20066;-79
2023/07/02 07:58:12;;;;;;;18.23;8.50;;;;;;;21.50;100.00;92150.50;4959624;28;20062;-78
2023/07/02 08:00:37;;;;;;;20.10;9.68;;;;;;;21.54;100.00;92157.41;4958739;28;20037;-78
2023/07/02 08:03:03;;;;;;;17.70;8.82;;;;;;;21.50;100.00;92161.16;4958503;28;20047;-79
2023/07/02 08:05:30;;;;;;;22.80;9.95;;;;;;;21.55;100.00;92161.63;4960068;28;20138;-78
2023/07/02 08:07:57;;;;;;;19.23;9.57;;;;;;;21.52;100.00;92153.56;4961483;28;20040;-78
2023/07/02 08:10:23;;;;;;;18.35;9.75;;;;;;;21.52;100.00;92158.91;4962419;28;20047;-77
2023/07/02 08:12:49;;;;;;;21.33;8.95;;;;;;;21.37;100.00;92161.34;4960496;29;20131;-78
2023/07/02 08:15:15;;;;;;;16.77;7.82;;;;;;;21.67;100.00;92159.84;4962171;28;20042;-76
2023/07/02 08:17:40;;;;;;;15.55;7.00;;;;;;;21.87;100.00;92163.13;4961255;28;20042;-77
2023/07/02 08:20:09;;;;;;;16.13;8.25;;;;;;;22.06;100.00;92165.59;4958633;29;20099;-78
2023/07/02 08:22:37;;;;;;;14.10;6.90;;;;;;;22.43;100.00;92167.50;4959096;29;20075;-78
2023/07/02 08:25:03;;;;;;;12.27;6.68;;;;;;;22.60;100.00;92171.47;4977253;28;20089;-78
2023/07/02 08:27:28;;;;;;;11.90;6.70;;;;;;;22.86;100.00;92163.28;4930414;29;20043;-78
2023/07/02 08:29:54;;;;;;;14.57;7.22;;;;;;;23.01;100.00;92169.53;4960009;28;20035;-77
2023/07/02 08:32:19;;;;;;;18.63;9.15;;;;;;;23.16;100.00;92174.94;4961204;29;20048;-77
2023/07/02 08:34:45;;;;;;;17.63;8.75;;;;;;;23.19;100.00;92168.84;4960102;28;20421;-77
2023/07/02 08:37:10;;;;;;;17.23;7.63;;;;;;;23.31;100.00;92173.16;4959165;29;20243;-77
2023/07/02 08:39:39;;;;;;;17.45;8.73;;;;;;;22.93;100.00;92170.56;4957335;28;20485;-77
2023/07/02 08:42:05;;;;;;;15.10;7.50;;;;;;;22.66;100.00;92180.66;4960478;28;20458;-78
2023/07/02 08:44:31;;;;;;;16.70;7.90;;;;;;;22.47;100.00;92167.53;4958961;28;20062;-78
2023/07/02 08:46:57;;;;;;;15.25;7.72;;;;;;;22.47;100.00;92168.28;4959625;28;20035;-78
2023/07/02 08:49:22;;;;;;;21.02;7.93;;;;;;;22.38;100.00;92175.81;4958867;29;20046;-77
2023/07/02 08:51:48;;;;;;;21.00;9.60;;;;;;;22.23;100.00;92172.28;4960400;28;20035;-79
2023/07/02 08:54:16;;;;;;;16.60;8.45;;;;;;;22.11;100.00;92172.50;4957059;29;20066;-77
2023/07/02 08:56:42;;;;;;;15.50;8.45;;;;;;;22.11;100.00;92173.28;4952320;29;20102;-77
2023/07/02 08:59:08;;;;;;;17.52;8.55;;;;;;;22.11;100.00;92181.28;4962530;28;20066;-77
2023/07/02 09:01:48;;;;;;;16.42;8.52;;;;;;;21.89;100.00;92176.84;4963458;28;20070;-79
2023/07/02 09:04:26;;;;;;;17.50;8.93;;;;;;;21.70;100.00;92181.19;4951856;29;20393;-79
2023/07/02 09:07:09;;;;;;;18.08;9.00;;;;;;;21.74;100.00;92175.91;4980027;28;20350;-80
2023/07/02 09:09:48;;;;;;;17.60;9.45;;;;;;;21.87;100.00;92173.78;4967931;29;20035;-79
2023/07/02 09:12:31;;;;;;;14.73;8.80;;;;;;;22.21;100.00;92171.84;4981890;28;20446;-79
2023/07/02 09:14:57;;;;;;;19.33;9.60;;;;;;;22.47;100.00;92167.53;4968421;28;20035;-79
2023/07/02 09:17:29;;;;;;;16.45;8.77;;;;;;;22.66;100.00;92173.41;4967180;29;20038;-78
2023/07/02 09:19:54;;;;;;;15.57;8.35;;;;;;;22.84;100.00;92178.91;4969198;28;20031;-79
2023/07/02 09:22:20;;;;;;;15.15;8.32;;;;;;;22.81;100.00;92176.97;4967963;29;20134;-78
2023/07/02 09:25:00;;;;;;;13.70;7.28;;;;;;;23.36;100.00;92176.22;4983617;28;20095;-79
2023/07/02 09:27:41;;;;;;;16.40;7.05;;;;;;;23.28;100.00;92171.97;4984321;28;20043;-78
2023/07/02 09:30:15;;;;;;;14.50;8.45;;;;;;;23.42;100.00;92172.06;4969165;29;20039;-78
2023/07/02 09:32:45;;;;;;;23.83;10.65;;;;;;;23.54;100.00;92173.63;4957451;28;20039;-78
2023/07/02 09:35:12;;;;;;;17.65;7.80;;;;;;;23.85;100.00;92168.84;4961066;28;20047;-84
2023/07/02 09:37:39;;;;;;;15.70;8.25;;;;;;;24.19;100.00;92181.94;4959248;29;20023;-79
2023/07/02 09:40:07;;;;;;;12.77;7.15;;;;;;;24.50;100.00;92173.22;4940732;29;20533;-80
2023/07/02 09:42:35;;;;;;;14.85;7.80;;;;;;;24.37;100.00;92173.94;4944001;29;20043;-80
2023/07/02 09:45:02;;;;;;;16.98;8.80;;;;;;;24.16;100.00;92180.78;4958131;28;20047;-80
2023/07/02 09:47:29;;;;;;;16.80;8.95;;;;;;;24.25;100.00;92169.69;4957988;29;20036;-80
2023/07/02 09:49:59;;;;;;;16.08;8.48;;;;;;;24.09;100.00;92178.06;4959626;29;20517;-78
2023/07/02 09:52:26;;;;;;;17.20;8.43;;;;;;;24.22;100.00;92173.13;4943581;29;20121;-79
2023/07/02 09:54:53;;;;;;;14.32;8.30;;;;;;;24.15;100.00;92179.22;4955910;28;20050;-79
2023/07/02 09:57:19;;;;;;;14.95;8.57;;;;;;;24.37;100.00;92169.34;4961776;28;20031;-80
2023/07/02 09:59:46;;;;;;;14.02;8.15;;;;;;;23.92;100.00;92166.19;4961470;29;20043;-79
2023/07/02 10:02:13;;;;;;;15.82;9.40;;;;;;;24.07;100.00;92167.75;4960630;29;20043;-79
2023/07/02 10:04:46;;;;;;;17.08;8.40;;;;;;;24.24;100.00;92174.28;4959858;28;20508;-79
2023/07/02 10:07:13;;;;;;;17.23;7.63;;;;;;;24.12;100.00;92180.00;4957595;29;20042;-79
2023/07/02 10:09:42;;;;;;;15.30;8.95;;;;;;;23.87;100.00;92171.91;4960165;28;20050;-79
2023/07/02 10:12:27;;;;;;;16.33;9.60;;;;;;;24.13;100.00;92176.16;4959219;29;20035;-79
2023/07/02 10:14:55;;;;;;;22.85;11.70;;;;;;;24.06;100.00;92176.91;4961904;28;20035;-78
2023/07/02 10:17:32;;;;;;;21.20;11.68;;;;;;;23.61;100.00;92175.56;4945129;29;20051;-79
2023/07/02 10:20:00;;;;;;;27.63;14.07;;;;;;;23.42;100.00;92177.41;4944740;29;20114;-79
2023/07/02 10:22:26;;;;;;;21.92;12.02;;;;;;;23.58;100.00;92174.41;4957810;29;20030;-79
2023/07/02 10:25:01;;;;;;;17.13;10.02;;;;;;;23.72;100.00;92173.72;4960160;28;20039;-81
2023/07/02 10:27:40;;;;;;;20.60;11.60;;;;;;;24.01;100.00;92171.19;4958220;28;20105;-81
2023/07/02 10:30:07;;;;;;;33.25;15.07;;;;;;;24.02;100.00;92170.78;4955724;28;20533;-80
2023/07/02 10:32:39;;;;;;;23.02;13.20;;;;;;;24.31;100.00;92166.28;4955853;28;20397;-81
2023/07/02 10:35:18;;;;;;;;;;;;;;;24.26;100.00;92166.66;4958125;28;20058;-80
2023/07/02 10:37:44;;;;;;;23.33;13.32;;;;;;;24.45;100.00;92172.78;4955736;29;19915;-79
2023/07/02 10:40:11;;;;;;;24.25;13.18;;;;;;;24.17;100.00;92171.59;4954373;29;20044;-80
2023/07/02 10:42:50;;;;;;;17.55;9.93;;;;;;;24.12;100.00;92169.31;4952767;29;20477;-81
2023/07/02 10:45:16;;;;;;;15.75;9.68;;;;;;;24.03;100.00;92166.22;4953919;28;20031;-79
2023/07/02 10:47:42;;;;;;;18.80;11.00;;;;;;;24.46;100.00;92160.97;4953794;28;20036;-80
2023/07/02 10:50:19;;;;;;;19.25;12.15;;;;;;;24.89;100.00;92161.75;4955158;29;20039;-79
2023/07/02 10:52:45;;;;;;;20.58;10.20;;;;;;;24.69;100.00;92168.66;4951765;29;20308;-79
2023/07/02 10:55:15;;;;;;;17.80;9.18;;;;;;;24.90;100.00;92157.16;4956522;28;20417;-79
2023/07/02 10:57:41;;;;;;;17.70;10.57;;;;;;;24.69;100.00;92169.41;4955551;29;20039;-77
2023/07/02 11:00:08;;;;;;;22.70;11.35;;;;;;;24.49;100.00;92163.66;4953546;29;20102;-80
2023/07/02 11:02:37;;;;;;;19.40;12.20;;;;;;;24.65;100.00;92154.50;4959715;28;20035;-81
2023/07/02 11:05:06;;;;;;;24.05;12.68;;;;;;;24.97;100.00;92167.91;4954317;28;20035;-81
2023/07/02 11:07:33;;;;;;;19.35;12.30;;;;;;;24.45;100.00;92156.75;4961662;28;20039;-81
2023/07/02 11:09:58;;;;;;;18.80;12.02;;;;;;;24.71;100.00;92169.78;4965449;28;20059;-80
2023/07/02 11:12:28;;;;;;;20.50;11.18;;;;;;;25.01;100.00;92163.28;4963723;29;20031;-79
2023/07/02 11:14:54;;;;;;;27.23;15.57;;;;;;;24.91;100.00;92158.72;4965157;28;20039;-79